createdAt,value
2022-09-18T00:02:23.655Z,98642.25
2022-09-18T00:04:51.221Z,98643.59
2022-09-18T00:07:18.649Z,98641.44
2022-09-18T00:09:45.893Z,98631.91
2022-09-18T00:12:13.476Z,98631.72
2022-09-18T00:14:40.667Z,98636.91
2022-09-18T00:17:09.275Z,98634.56
2022-09-18T00:19:36.832Z,98627.59
2022-09-18T00:22:04.044Z,98633.00
2022-09-18T00:24:31.240Z,98632.62
2022-09-18T00:26:58.707Z,98632.38
2022-09-18T00:29:25.919Z,98634.16
2022-09-18T00:31:53.448Z,98634.09
2022-09-18T00:34:21.032Z,98637.59
2022-09-18T00:36:49.120Z,98637.37
2022-09-18T00:39:16.842Z,98628.59
2022-09-18T00:41:44.953Z,98629.53
2022-09-18T00:44:31.109Z,98630.69
2022-09-18T00:47:07.213Z,98631.09
2022-09-18T00:49:34.422Z,98632.53
2022-09-18T00:52:02.024Z,98628.81
2022-09-18T00:54:30.954Z,98623.41
2022-09-18T00:56:59.726Z,98628.09
2022-09-18T00:59:31.670Z,98636.16
2022-09-18T01:01:59.386Z,98637.16
2022-09-18T01:04:27.934Z,98646.78
2022-09-18T01:07:10.412Z,98648.41
2022-09-18T01:09:43.606Z,98646.88
2022-09-18T01:12:20.093Z,98654.31
2022-09-18T01:14:50.432Z,98652.97
2022-09-18T01:17:21.317Z,98656.62
2022-09-18T01:19:52.168Z,98666.44
2022-09-18T01:22:30.724Z,98663.75
2022-09-18T01:25:05.996Z,98661.97
2022-09-18T01:27:44.571Z,98676.09
2022-09-18T01:30:12.187Z,98684.91
2022-09-18T01:32:48.758Z,98681.28
2022-09-18T01:35:39.962Z,98687.75
2022-09-18T01:38:13.532Z,98700.91
2022-09-18T01:40:47.627Z,98706.44
2022-09-18T01:43:15.369Z,98706.84
2022-09-18T01:45:49.723Z,98707.97
2022-09-18T01:48:23.711Z,98729.09
2022-09-18T01:50:52.979Z,98731.84
2022-09-18T01:53:24.658Z,98734.78
2022-09-18T01:56:10.165Z,98733.84
2022-09-18T01:58:37.780Z,98739.75
2022-09-18T02:01:07.422Z,98744.13
2022-09-18T02:03:42.616Z,98752.91
2022-09-18T02:06:12.514Z,98747.72
2022-09-18T02:08:43.952Z,98751.87
2022-09-18T02:11:12.148Z,98754.62
2022-09-18T02:13:44.439Z,98761.47
2022-09-18T02:16:13.594Z,98758.31
2022-09-18T02:18:42.841Z,98755.19
2022-09-18T02:21:10.713Z,98765.38
2022-09-18T02:23:38.651Z,98765.84
2022-09-18T02:26:07.384Z,98778.31
2022-09-18T02:28:35.058Z,98779.34
2022-09-18T02:31:02.367Z,98780.19
2022-09-18T02:33:32.487Z,98782.56
2022-09-18T02:36:16.318Z,98787.22
2022-09-18T02:38:53.246Z,98791.34
2022-09-18T02:41:27.850Z,98789.09
2022-09-18T02:43:59.110Z,98796.00
2022-09-18T02:46:27.824Z,98802.91
2022-09-18T02:48:55.120Z,98807.22
2022-09-18T02:51:33.060Z,98810.38
2022-09-18T02:54:13.883Z,98799.47
2022-09-18T02:56:44.973Z,98799.88
2022-09-18T02:59:12.425Z,98802.94
2022-09-18T03:01:41.684Z,98800.12
2022-09-18T03:04:13.929Z,98803.22
2022-09-18T03:06:42.197Z,98808.09
2022-09-18T03:09:09.444Z,98811.37
2022-09-18T03:11:37.276Z,98810.97
2022-09-18T03:14:04.767Z,98810.97
2022-09-18T03:16:32.074Z,98821.22
2022-09-18T03:18:59.779Z,98824.41
2022-09-18T03:21:27.544Z,98826.53
2022-09-18T03:23:54.807Z,98825.66
2022-09-18T03:26:22.469Z,98827.19
2022-09-18T03:28:50.697Z,98826.75
2022-09-18T03:31:18.887Z,98837.91
2022-09-18T03:33:46.805Z,98831.28
2022-09-18T03:36:14.399Z,98837.75
2022-09-18T03:38:42.524Z,98830.88
2022-09-18T03:41:09.896Z,98833.47
2022-09-18T03:43:40.612Z,98836.22
2022-09-18T03:46:09.921Z,98846.09
2022-09-18T03:48:37.205Z,98846.50
2022-09-18T03:51:04.761Z,98848.31
2022-09-18T03:53:32.219Z,98853.53
2022-09-18T03:56:00.420Z,98848.91
2022-09-18T03:58:28.647Z,98856.47
2022-09-18T04:00:58.309Z,98859.63
2022-09-18T04:03:26.993Z,98851.38
2022-09-18T04:05:55.735Z,98861.81
2022-09-18T04:08:24.856Z,98863.47
2022-09-18T04:10:56.036Z,98864.22
2022-09-18T04:13:24.552Z,98866.06
2022-09-18T04:15:52.006Z,98869.34
2022-09-18T04:18:19.556Z,98870.28
2022-09-18T04:20:46.800Z,98871.41
2022-09-18T04:23:14.573Z,98869.16
2022-09-18T04:25:43.048Z,98875.78
2022-09-18T04:28:10.724Z,98869.88
2022-09-18T04:30:38.690Z,98867.00
2022-09-18T04:33:07.520Z,98879.47
2022-09-18T04:35:35.069Z,98866.97
2022-09-18T04:38:02.289Z,98870.00
2022-09-18T04:40:30.632Z,98880.63
2022-09-18T04:42:58.046Z,98877.47
2022-09-18T04:45:26.161Z,98880.03
2022-09-18T04:47:53.632Z,98880.97
2022-09-18T04:50:21.000Z,98879.87
2022-09-18T04:53:03.117Z,98893.44
2022-09-18T04:55:32.079Z,98892.44
2022-09-18T04:57:59.613Z,98898.94
2022-09-18T05:00:28.782Z,98901.00
2022-09-18T05:02:57.755Z,98902.94
2022-09-18T05:05:26.285Z,98905.47
2022-09-18T05:07:53.982Z,98902.47
2022-09-18T05:10:21.997Z,98897.13
2022-09-18T05:12:49.710Z,98899.41
2022-09-18T05:15:18.859Z,98907.78
2022-09-18T05:17:46.519Z,98910.28
2022-09-18T05:20:13.945Z,98907.47
2022-09-18T05:22:46.925Z,98911.97
2022-09-18T05:25:14.413Z,98915.38
2022-09-18T05:27:41.986Z,98919.75
2022-09-18T05:30:09.820Z,98916.00
2022-09-18T05:32:37.699Z,98914.31
2022-09-18T05:35:05.830Z,98916.75
2022-09-18T05:37:33.188Z,98916.09
2022-09-18T05:40:00.512Z,98910.97
2022-09-18T05:42:28.050Z,98915.41
2022-09-18T05:45:01.766Z,98925.34
2022-09-18T05:47:32.489Z,98922.38
2022-09-18T05:50:00.398Z,98922.94
2022-09-18T05:52:27.602Z,98919.94
2022-09-18T05:54:55.134Z,98915.47
2022-09-18T05:57:22.466Z,98917.44
2022-09-18T05:59:50.016Z,98914.22
2022-09-18T06:02:17.642Z,98918.06
2022-09-18T06:04:46.549Z,98914.91
2022-09-18T06:07:16.186Z,98914.13
2022-09-18T06:09:43.788Z,98913.72
2022-09-18T06:12:12.433Z,98923.97
2022-09-18T06:14:39.625Z,98925.09
2022-09-18T06:17:06.942Z,98930.03
2022-09-18T06:19:35.221Z,98931.19
2022-09-18T06:22:02.483Z,98929.47
2022-09-18T06:24:29.737Z,98934.37
2022-09-18T06:26:57.782Z,98942.63
2022-09-18T06:29:25.076Z,98952.97
2022-09-18T06:31:53.836Z,98956.28
2022-09-18T06:34:21.493Z,98943.31
2022-09-18T06:36:48.785Z,98943.78
2022-09-18T06:39:16.139Z,98951.41
2022-09-18T06:41:43.915Z,98944.78
2022-09-18T06:44:17.550Z,98941.63
2022-09-18T06:46:45.190Z,98940.22
2022-09-18T06:49:13.395Z,98942.66
2022-09-18T06:51:41.643Z,98932.69
2022-09-18T06:54:09.611Z,98931.03
2022-09-18T06:56:38.041Z,98937.56
2022-09-18T06:59:07.035Z,98932.47
2022-09-18T07:01:35.824Z,98933.75
2022-09-18T07:04:03.835Z,98934.50
2022-09-18T07:06:31.457Z,98935.78
2022-09-18T07:08:58.993Z,98932.47
2022-09-18T07:11:26.867Z,98946.66
2022-09-18T07:13:54.306Z,98939.94
2022-09-18T07:16:21.985Z,98954.44
2022-09-18T07:18:49.483Z,98948.34
2022-09-18T07:21:20.918Z,98949.75
2022-09-18T07:23:48.853Z,98954.94
2022-09-18T07:26:16.169Z,98960.22
2022-09-18T07:28:46.459Z,98958.63
2022-09-18T07:31:14.385Z,98959.47
2022-09-18T07:33:44.172Z,98963.38
2022-09-18T07:36:15.806Z,98976.59
2022-09-18T07:38:44.599Z,98983.16
2022-09-18T07:41:12.045Z,98974.72
2022-09-18T07:43:40.709Z,98978.53
2022-09-18T07:46:08.332Z,98974.00
2022-09-18T07:48:36.008Z,98979.75
2022-09-18T07:51:04.408Z,98985.38
2022-09-18T07:53:32.520Z,98991.81
2022-09-18T07:56:00.015Z,98982.13
2022-09-18T07:58:27.541Z,98980.37
2022-09-18T08:00:55.191Z,98986.72
2022-09-18T08:03:23.115Z,99001.19
2022-09-18T08:05:51.401Z,98985.03
2022-09-18T08:08:24.759Z,98993.97
2022-09-18T08:10:52.582Z,98989.91
2022-09-18T08:13:19.924Z,99000.53
2022-09-18T08:15:47.434Z,99005.91
2022-09-18T08:18:17.442Z,99015.44
2022-09-18T08:20:46.049Z,99010.41
2022-09-18T08:23:15.575Z,99012.13
2022-09-18T08:25:47.682Z,99015.84
2022-09-18T08:28:16.192Z,99014.44
2022-09-18T08:30:45.268Z,99005.41
2022-09-18T08:33:12.760Z,99004.16
2022-09-18T08:35:40.410Z,99013.59
2022-09-18T08:38:11.486Z,99009.00
2022-09-18T08:40:50.157Z,99009.00
2022-09-18T08:43:21.765Z,99001.87
2022-09-18T08:46:14.250Z,99003.22
2022-09-18T08:48:58.164Z,99013.94
2022-09-18T08:51:47.638Z,99024.00
2022-09-18T08:54:21.062Z,99028.09
2022-09-18T08:56:50.085Z,99025.19
2022-09-18T08:59:21.912Z,99024.03
2022-09-18T09:02:04.461Z,99033.66
2022-09-18T09:04:32.158Z,99036.09
2022-09-18T09:07:03.713Z,99027.78
2022-09-18T09:09:33.289Z,99038.75
2022-09-18T09:12:08.354Z,99045.78
2022-09-18T09:14:56.227Z,99023.69
2022-09-18T09:17:24.533Z,99045.09
2022-09-18T09:19:54.507Z,99043.00
2022-09-18T09:22:29.837Z,99035.69
2022-09-18T09:24:59.517Z,99032.91
2022-09-18T09:27:33.927Z,99028.84
2022-09-18T09:30:06.187Z,99025.09
2022-09-18T09:32:50.000Z,99035.88
2022-09-18T09:35:29.651Z,99034.66
2022-09-18T09:38:31.208Z,99032.69
2022-09-18T09:41:01.173Z,99026.25
2022-09-18T09:43:39.416Z,99034.13
2022-09-18T09:46:42.522Z,99023.75
2022-09-18T09:49:14.662Z,99032.75
2022-09-18T09:51:44.736Z,99041.37
2022-09-18T09:54:12.545Z,99043.31
2022-09-18T09:57:00.560Z,99057.63
2022-09-18T09:59:47.371Z,99052.12
2022-09-18T10:02:26.725Z,99046.22
2022-09-18T10:05:14.276Z,99055.69
2022-09-18T10:07:49.360Z,99056.87
2022-09-18T10:10:23.813Z,99065.50
2022-09-18T10:12:52.555Z,99063.50
2022-09-18T10:15:28.898Z,99069.59
2022-09-18T10:17:57.218Z,99067.06
2022-09-18T10:20:27.388Z,99075.22
2022-09-18T10:22:55.389Z,99069.22
2022-09-18T10:25:25.868Z,99061.66
2022-09-18T10:27:54.514Z,99053.78
2022-09-18T10:30:21.950Z,99046.34
2022-09-18T10:32:50.953Z,99068.56
2022-09-18T10:35:26.806Z,99056.75
2022-09-18T10:37:57.475Z,99069.03
2022-09-18T10:40:33.937Z,99057.53
2022-09-18T10:43:03.236Z,99058.81
2022-09-18T10:45:32.389Z,99064.91
2022-09-18T10:48:07.347Z,99061.00
2022-09-18T10:50:37.507Z,99060.34
2022-09-18T10:53:23.729Z,99059.25
2022-09-18T10:55:56.061Z,99052.78
2022-09-18T10:58:30.705Z,99057.13
2022-09-18T11:01:05.490Z,99060.53
2022-09-18T11:03:38.234Z,99053.66
2022-09-18T11:06:25.041Z,99059.72
2022-09-18T11:08:53.846Z,99065.63
2022-09-18T11:11:22.917Z,99065.03
2022-09-18T11:14:00.161Z,99058.69
2022-09-18T11:16:30.130Z,99069.00
2022-09-18T11:19:07.037Z,99071.34
2022-09-18T11:21:46.969Z,99072.72
2022-09-18T11:24:24.716Z,99075.56
2022-09-18T11:26:55.802Z,99065.16
2022-09-18T11:29:30.771Z,99061.56
2022-09-18T11:31:58.561Z,99063.50
2022-09-18T11:34:28.419Z,99061.28
2022-09-18T11:37:00.674Z,99064.31
2022-09-18T11:39:29.631Z,99051.13
2022-09-18T11:41:56.866Z,99063.34
2022-09-18T11:44:28.270Z,99054.72
2022-09-18T11:47:13.111Z,99054.59
2022-09-18T11:49:51.523Z,99052.88
2022-09-18T11:52:21.180Z,99062.50
2022-09-18T11:55:15.446Z,99050.69
2022-09-18T11:57:45.853Z,99050.69
2022-09-18T12:00:14.453Z,99054.91
2022-09-18T12:02:45.015Z,99049.84
2022-09-18T12:05:34.219Z,99049.13
2022-09-18T12:08:04.942Z,99050.34
2022-09-18T12:10:52.582Z,99043.22
2022-09-18T12:13:40.360Z,99042.94
2022-09-18T12:16:28.432Z,99042.09
2022-09-18T12:19:04.345Z,99040.63
2022-09-18T12:21:55.845Z,99029.72
2022-09-18T12:24:24.180Z,99036.06
2022-09-18T12:27:03.490Z,99042.69
2022-09-18T12:29:31.171Z,99037.97
2022-09-18T12:32:15.788Z,99037.00
2022-09-18T12:34:43.998Z,99028.16
2022-09-18T12:37:17.357Z,99018.63
2022-09-18T12:39:57.685Z,99024.53
2022-09-18T12:42:34.908Z,99036.47
2022-09-18T12:45:21.109Z,99024.53
2022-09-18T12:48:07.435Z,99024.50
2022-09-18T12:50:42.643Z,99029.12
2022-09-18T12:53:13.214Z,99030.25
2022-09-18T12:55:56.973Z,99024.50
2022-09-18T12:58:36.247Z,99021.75
2022-09-18T13:01:05.313Z,99029.41
2022-09-18T13:03:36.537Z,99020.69
2022-09-18T13:06:17.148Z,99031.00
2022-09-18T13:08:47.743Z,99029.31
2022-09-18T13:11:18.002Z,99024.25
2022-09-18T13:13:48.020Z,99028.75
2022-09-18T13:16:22.369Z,99041.03
2022-09-18T13:18:57.362Z,99036.44
2022-09-18T13:21:28.734Z,99046.19
2022-09-18T13:23:56.218Z,99056.97
2022-09-18T13:26:23.763Z,99045.66
2022-09-18T13:28:51.131Z,99045.25
2022-09-18T13:31:26.753Z,99054.03
2022-09-18T13:34:06.254Z,99065.44
2022-09-18T13:36:35.366Z,99065.03
2022-09-18T13:39:07.802Z,99078.22
2022-09-18T13:41:46.119Z,99090.22
2022-09-18T13:44:23.943Z,99129.19
2022-09-18T13:46:57.101Z,99144.69
2022-09-18T13:49:28.924Z,99151.84
2022-09-18T13:51:56.867Z,99167.75
2022-09-18T13:54:25.150Z,99178.66
2022-09-18T13:57:04.677Z,99175.06
2022-09-18T13:59:54.347Z,99191.03
2022-09-18T14:02:22.080Z,99182.50
2022-09-18T14:04:50.638Z,99162.37
2022-09-18T14:07:18.267Z,99161.13
2022-09-18T14:09:48.393Z,99147.13
2022-09-18T14:12:17.668Z,99143.00
2022-09-18T14:14:56.850Z,99133.44
2022-09-18T14:17:25.881Z,99134.94
2022-09-18T14:20:06.021Z,99140.50
2022-09-18T14:22:36.450Z,99142.38
2022-09-18T14:25:06.427Z,99147.87
2022-09-18T14:27:36.981Z,99147.75
2022-09-18T14:30:12.105Z,99172.31
2022-09-18T14:32:40.304Z,99179.94
2022-09-18T14:35:19.483Z,99169.13
2022-09-18T14:37:48.319Z,99162.66
2022-09-18T14:40:20.935Z,99150.47
2022-09-18T14:42:48.851Z,99168.28
2022-09-18T14:45:18.872Z,99173.25
2022-09-18T14:47:47.232Z,99172.09
2022-09-18T14:50:26.421Z,99157.13
2022-09-18T14:52:54.370Z,99160.69
2022-09-18T14:55:23.815Z,99151.31
2022-09-18T14:57:52.774Z,99154.13
2022-09-18T15:00:20.999Z,99144.91
2022-09-18T15:02:56.442Z,99146.13
2022-09-18T15:05:24.675Z,99140.81
2022-09-18T15:07:53.853Z,99135.13
2022-09-18T15:10:21.664Z,99131.25
2022-09-18T15:12:49.555Z,99128.47
2022-09-18T15:15:27.614Z,99127.28
2022-09-18T15:17:54.848Z,99117.69
2022-09-18T15:20:24.935Z,99126.72
2022-09-18T15:22:53.404Z,99129.16
2022-09-18T15:25:33.085Z,99130.94
2022-09-18T15:28:10.929Z,99134.47
2022-09-18T15:30:39.656Z,99142.38
2022-09-18T15:33:07.796Z,99135.44
2022-09-18T15:35:35.834Z,99127.84
2022-09-18T15:38:03.917Z,99141.81
2022-09-18T15:40:36.503Z,99142.47
2022-09-18T15:43:05.178Z,99148.69
2022-09-18T15:45:38.534Z,99157.59
2022-09-18T15:48:24.421Z,99157.09
2022-09-18T15:50:52.093Z,99159.38
2022-09-18T15:53:21.704Z,99153.91
2022-09-18T15:55:54.257Z,99147.97
2022-09-18T15:58:25.225Z,99151.22
2022-09-18T16:00:56.984Z,99156.31
2022-09-18T16:03:24.532Z,99171.16
2022-09-18T16:05:55.511Z,99169.87
2022-09-18T16:08:22.925Z,99180.41
2022-09-18T16:10:53.106Z,99189.12
2022-09-18T16:13:20.422Z,99190.38
2022-09-18T16:15:48.031Z,99191.56
2022-09-18T16:18:16.485Z,99203.72
2022-09-18T16:20:49.904Z,99203.16
2022-09-18T16:23:21.043Z,99203.25
2022-09-18T16:26:00.414Z,99196.06
2022-09-18T16:28:28.931Z,99181.41
2022-09-18T16:30:56.234Z,99177.50
2022-09-18T16:33:24.716Z,99179.63
2022-09-18T16:35:56.201Z,99182.59
2022-09-18T16:38:23.550Z,99179.81
2022-09-18T16:40:50.818Z,99181.75
2022-09-18T16:43:18.337Z,99180.56
2022-09-18T16:45:46.819Z,99177.84
2022-09-18T16:48:14.209Z,99183.34
2022-09-18T16:50:41.982Z,99179.59
2022-09-18T16:53:09.458Z,99179.34
2022-09-18T16:55:38.894Z,99177.75
2022-09-18T16:58:06.396Z,99177.09
2022-09-18T17:00:35.229Z,99180.69
2022-09-18T17:03:04.425Z,99186.19
2022-09-18T17:05:32.518Z,99183.09
2022-09-18T17:08:00.449Z,99185.66
2022-09-18T17:10:28.621Z,99183.94
2022-09-18T17:12:57.227Z,99177.50
2022-09-18T17:15:24.800Z,99179.59
2022-09-18T17:17:54.493Z,99185.87
2022-09-18T17:20:22.304Z,99189.28
2022-09-18T17:22:51.487Z,99196.06
2022-09-18T17:25:19.544Z,99198.75
2022-09-18T17:27:50.916Z,99194.56
2022-09-18T17:30:18.787Z,99197.25
2022-09-18T17:32:49.289Z,99192.19
2022-09-18T17:35:21.462Z,99188.13
2022-09-18T17:37:51.750Z,99191.28
2022-09-18T17:40:19.841Z,99196.41
2022-09-18T17:42:47.442Z,99203.16
2022-09-18T17:45:15.091Z,99196.06
2022-09-18T17:47:42.854Z,99204.84
2022-09-18T17:50:10.179Z,99212.84
2022-09-18T17:52:37.546Z,99216.03
2022-09-18T17:55:05.349Z,99234.56
2022-09-18T17:57:34.788Z,99220.78
2022-09-18T18:00:02.200Z,99229.13
2022-09-18T18:02:39.477Z,99224.28
2022-09-18T18:05:07.588Z,99227.12
2022-09-18T18:07:36.895Z,99237.78
2022-09-18T18:10:05.747Z,99240.38
2022-09-18T18:12:33.323Z,99239.72
2022-09-18T18:15:00.569Z,99241.97
2022-09-18T18:17:35.910Z,99251.28
2022-09-18T18:20:04.644Z,99243.53
2022-09-18T18:22:31.889Z,99247.41
2022-09-18T18:24:59.266Z,99237.19
2022-09-18T18:27:26.877Z,99246.44
2022-09-18T18:29:55.694Z,99249.66
2022-09-18T18:32:23.030Z,99249.75
2022-09-18T18:34:50.614Z,99253.59
2022-09-18T18:37:19.571Z,99259.22
2022-09-18T18:39:48.098Z,99259.19
2022-09-18T18:42:16.004Z,99251.78
2022-09-18T18:44:43.796Z,99249.72
2022-09-18T18:47:11.102Z,99247.22
2022-09-18T18:49:39.354Z,99246.91
2022-09-18T18:52:07.506Z,99246.16
2022-09-18T18:54:35.933Z,99252.28
2022-09-18T18:57:04.823Z,99258.06
2022-09-18T18:59:32.943Z,99262.19
2022-09-18T19:02:01.177Z,99268.41
2022-09-18T19:04:28.842Z,99262.69
2022-09-18T19:07:08.195Z,99256.09
2022-09-18T19:09:36.945Z,99254.09
2022-09-18T19:12:04.323Z,99259.19
2022-09-18T19:14:33.500Z,99253.97
2022-09-18T19:17:03.116Z,99245.16
2022-09-18T19:19:30.364Z,99253.50
2022-09-18T19:22:01.123Z,99257.00
2022-09-18T19:24:29.962Z,99253.13
2022-09-18T19:26:58.896Z,99262.72
2022-09-18T19:29:29.319Z,99260.75
2022-09-18T19:31:57.878Z,99258.19
2022-09-18T19:34:25.307Z,99262.31
2022-09-18T19:36:52.858Z,99257.34
2022-09-18T19:39:21.259Z,99262.09
2022-09-18T19:41:55.413Z,99254.00
2022-09-18T19:44:25.944Z,99261.75
2022-09-18T19:46:53.906Z,99252.00
2022-09-18T19:49:22.495Z,99259.81
2022-09-18T19:51:50.018Z,99252.63
2022-09-18T19:54:17.269Z,99245.50
2022-09-18T19:56:45.217Z,99248.00
2022-09-18T19:59:13.740Z,99237.34
2022-09-18T20:01:41.097Z,99236.00
2022-09-18T20:04:08.699Z,99233.09
2022-09-18T20:06:38.417Z,99225.66
2022-09-18T20:09:06.220Z,99230.59
2022-09-18T20:11:35.342Z,99231.25
2022-09-18T20:14:03.386Z,99234.72
2022-09-18T20:16:30.745Z,99234.78
2022-09-18T20:18:58.525Z,99237.59
2022-09-18T20:21:25.788Z,99235.16
2022-09-18T20:23:57.032Z,99232.13
2022-09-18T20:26:24.761Z,99232.28
2022-09-18T20:28:52.237Z,99224.66
2022-09-18T20:31:20.956Z,99224.88
2022-09-18T20:33:48.635Z,99227.41
2022-09-18T20:36:15.837Z,99217.66
2022-09-18T20:38:43.174Z,99213.44
2022-09-18T20:41:13.497Z,99226.22
2022-09-18T20:43:41.855Z,99222.03
2022-09-18T20:46:11.588Z,99217.31
2022-09-18T20:48:41.786Z,99218.69
2022-09-18T20:51:09.779Z,99214.25
2022-09-18T20:53:39.205Z,99215.59
2022-09-18T20:56:07.079Z,99212.06
2022-09-18T20:58:35.132Z,99203.88
2022-09-18T21:01:08.342Z,99206.94
2022-09-18T21:03:35.931Z,99200.84
2022-09-18T21:06:22.032Z,99202.84
2022-09-18T21:08:53.379Z,99200.53
2022-09-18T21:11:26.635Z,99201.75
2022-09-18T21:13:55.812Z,99192.81
2022-09-18T21:16:25.254Z,99190.44
2022-09-18T21:18:57.803Z,99191.38
2022-09-18T21:21:25.727Z,99191.09
2022-09-18T21:23:54.297Z,99179.91
2022-09-18T21:26:25.641Z,99180.94
2022-09-18T21:28:54.203Z,99183.09
2022-09-18T21:31:21.539Z,99187.34
2022-09-18T21:33:52.879Z,99184.31
2022-09-18T21:36:23.483Z,99185.31
2022-09-18T21:38:51.749Z,99174.62
2022-09-18T21:41:19.498Z,99166.81
2022-09-18T21:43:50.449Z,99160.16
2022-09-18T21:46:21.544Z,99159.97
2022-09-18T21:48:52.915Z,99156.03
2022-09-18T21:51:20.564Z,99158.38
2022-09-18T21:53:47.962Z,99147.34
2022-09-18T21:56:16.714Z,99146.09
2022-09-18T21:58:47.739Z,99153.91
2022-09-18T22:01:18.335Z,99161.97
2022-09-18T22:03:54.864Z,99160.66
2022-09-18T22:06:34.451Z,99161.66
2022-09-18T22:09:06.012Z,99148.94
2022-09-18T22:11:36.909Z,99150.62
2022-09-18T22:14:06.447Z,99144.41
2022-09-18T22:16:33.891Z,99151.66
2022-09-18T22:19:01.139Z,99154.37
2022-09-18T22:21:49.085Z,99144.41
2022-09-18T22:24:18.919Z,99155.13
2022-09-18T22:26:47.634Z,99151.91
2022-09-18T22:29:34.453Z,99145.59
2022-09-18T22:32:02.074Z,99154.81
2022-09-18T22:34:30.003Z,99156.38
2022-09-18T22:37:00.424Z,99149.72
2022-09-18T22:39:28.590Z,99159.19
2022-09-18T22:41:55.808Z,99161.13
2022-09-18T22:44:23.056Z,99159.47
2022-09-18T22:46:52.445Z,99163.91
2022-09-18T22:49:20.433Z,99158.16
2022-09-18T22:51:47.813Z,99150.97
2022-09-18T22:54:16.802Z,99148.41
2022-09-18T22:56:45.264Z,99150.56
2022-09-18T22:59:13.208Z,99160.69
2022-09-18T23:01:49.172Z,99143.66
2022-09-18T23:04:18.451Z,99148.41
2022-09-18T23:06:46.746Z,99152.16
2022-09-18T23:09:14.389Z,99145.63
2022-09-18T23:11:44.040Z,99134.38
2022-09-18T23:14:15.884Z,99146.44
2022-09-18T23:16:43.066Z,99149.69
2022-09-18T23:19:17.665Z,99157.69
2022-09-18T23:21:45.249Z,99154.63
2022-09-18T23:24:12.721Z,99157.47
2022-09-18T23:26:40.980Z,99147.44
2022-09-18T23:29:09.653Z,99154.84
2022-09-18T23:31:38.192Z,99150.91
2022-09-18T23:34:06.477Z,99151.88
2022-09-18T23:36:35.813Z,99153.56
2022-09-18T23:39:04.631Z,99146.81
2022-09-18T23:41:34.373Z,99139.97
2022-09-18T23:44:02.424Z,99139.13
2022-09-18T23:46:29.703Z,99142.47
2022-09-18T23:48:57.198Z,99141.19
2022-09-18T23:51:26.223Z,99140.41
2022-09-18T23:53:54.767Z,99142.97
2022-09-18T23:56:23.616Z,99142.66
2022-09-18T23:58:54.572Z,99131.56
